Jacob Lake, Arizona
Current Conditions -  °F | °C
As of 6:55 AM on Wednesday 22 Oct 2014 (Local Time) from KAZC Reporting Station
Clear Clear  
Wind Chill:   Ceiling: Unl
Heat Index:   Visibility: 10mi
Dew Point:   Wind: 5mph
Humidity: 80%   Direction: 160°SSE
Pressure: 30.15"   Gusts: NA
Location:  36.9484°N, 112.529°W
Report Text: KAZC 221355Z AUTO 16004KT 10SM CLR 08/04 A3015 RMK AO2 T00770044
Loading
Personal Weather Stations






























Interactive Weather Map
Tropical Storm Tracking
New forecast layout! Learn more

10-Day Weather Forecast

Advertisements
Track Severe Weather on mobile